Decoded Metar for DAON (TLEMCEN in ALGERIA) (IATA:TLM) | Meteo·Mobile Aviation Weather
aviador You're here:

DAON Decoded Metar

TLEMCEN in ALGERIA
Report Time2018-12-14 17:30:00
UTC Time2018-12-14 18:01:17
Flight Rules vfr VFR
Wind280° at 06 kt
W.Decomp.*RWY 25: 5.1 kt HW 3.1 kt RCW
W.Rank280° ranks 5
Current wind is below 280° avg. (7.6)
Visibility9999 m
Phenomena:N/A
Clouds:Few 020 Hf
Scattered 026 Hf
Expected CloudBase > 2,400 ft AGL from Temp-Dew spread
CeilingNone
Temp12°C (ISA -1)
Dew Point06°C (67% RH)
AAT8.9°C
QNH1024 hPa
Density Alt404 ft
Elevation810 ft
Report Wrong Elevation
Raw Report
DAON 141730Z 28006KT 9999 FEW020 SCT026 12/06 Q1024=

Extra information for DAON:More info

Metar Taf Metar & Taf Last 4 Metars F.Rules Stats Wind Profile Meteogram Temp Stats Airport Information Weather charts Add Link Nearby VenuesMetar ALERT Operation Metar Decoded Social comments